createdAt,value
2019-01-04T00:01:17.850Z,22.10
2019-01-04T00:03:46.934Z,19.30
2019-01-04T00:06:15.985Z,15.83
2019-01-04T00:08:45.036Z,12.87
2019-01-04T00:11:14.238Z,12.63
2019-01-04T00:13:58.036Z,16.73
2019-01-04T00:16:27.115Z,20.30
2019-01-04T00:18:56.162Z,14.20
2019-01-04T00:21:25.208Z,9.23
2019-01-04T00:23:54.491Z,10.20
2019-01-04T00:26:23.549Z,8.43
2019-01-04T00:28:52.585Z,18.03
2019-01-04T00:31:21.852Z,17.90
2019-01-04T00:33:50.892Z,14.90
2019-01-04T00:36:19.938Z,11.93
2019-01-04T00:38:49.012Z,11.60
2019-01-04T00:41:18.062Z,14.73
2019-01-04T00:43:47.126Z,11.50
2019-01-04T00:46:16.198Z,13.93
2019-01-04T00:48:45.239Z,17.77
2019-01-04T00:51:14.290Z,16.30
2019-01-04T00:53:43.376Z,13.47
2019-01-04T00:56:28.559Z,17.87
2019-01-04T00:59:09.432Z,17.90
2019-01-04T01:01:45.236Z,17.20
2019-01-04T01:04:25.975Z,15.07
2019-01-04T01:10:12.491Z,14.30
2019-01-04T01:12:48.115Z,16.03
2019-01-04T01:18:11.383Z,18.50
2019-01-04T01:20:40.434Z,18.07
2019-01-04T01:23:14.977Z,17.83
2019-01-04T01:26:05.996Z,20.63
2019-01-04T01:28:53.650Z,21.33
2019-01-04T01:31:28.529Z,17.03
2019-01-04T01:34:04.376Z,15.70
2019-01-04T01:36:35.248Z,16.90
2019-01-04T01:39:25.769Z,13.90
2019-01-04T01:41:55.770Z,13.27
2019-01-04T01:44:36.489Z,12.63
2019-01-04T01:47:05.539Z,16.43
2019-01-04T01:49:50.298Z,12.73
2019-01-04T01:52:34.231Z,11.03
2019-01-04T01:55:03.320Z,11.57
2019-01-04T01:57:32.376Z,11.17
2019-01-04T02:00:01.418Z,11.43
2019-01-04T02:02:30.614Z,10.77
2019-01-04T02:04:59.663Z,10.73
2019-01-04T02:07:28.711Z,10.13
2019-01-04T02:09:57.784Z,10.30
2019-01-04T02:12:26.841Z,11.37
2019-01-04T02:14:55.890Z,11.73
2019-01-04T02:17:25.060Z,10.10
2019-01-04T02:19:54.110Z,12.90
2019-01-04T02:22:23.160Z,13.37
2019-01-04T02:24:52.271Z,13.33
2019-01-04T02:27:21.330Z,14.90
2019-01-04T02:29:50.362Z,14.30
2019-01-04T02:32:19.440Z,24.13
2019-01-04T02:34:48.502Z,21.60
2019-01-04T02:37:17.564Z,17.67
2019-01-04T02:39:46.640Z,13.63
2019-01-04T02:42:15.695Z,12.77
2019-01-04T02:44:44.734Z,14.90
2019-01-04T02:47:13.861Z,14.80
2019-01-04T02:49:42.903Z,11.63
2019-01-04T02:52:11.955Z,11.63
2019-01-04T02:54:41.027Z,11.53
2019-01-04T02:57:10.070Z,10.67
2019-01-04T02:59:39.110Z,8.60
2019-01-04T03:02:08.201Z,9.37
2019-01-04T03:04:37.247Z,16.23
2019-01-04T03:07:06.300Z,10.20
2019-01-04T03:09:35.427Z,7.57
2019-01-04T03:12:04.467Z,6.83
2019-01-04T03:14:33.503Z,7.80
2019-01-04T03:17:02.582Z,7.13
2019-01-04T03:19:31.615Z,7.13
2019-01-04T03:22:00.652Z,8.40
2019-01-04T03:24:29.717Z,7.97
2019-01-04T03:26:58.748Z,7.37
2019-01-04T03:29:27.786Z,5.40
2019-01-04T03:31:56.898Z,10.63
2019-01-04T03:34:25.987Z,9.43
2019-01-04T03:36:54.995Z,7.97
2019-01-04T03:39:24.065Z,8.70
2019-01-04T03:41:53.102Z,5.20
2019-01-04T03:44:22.143Z,8.90
2019-01-04T03:46:51.299Z,5.97
2019-01-04T03:49:20.347Z,7.93
2019-01-04T03:51:49.381Z,6.80
2019-01-04T03:54:18.480Z,7.47
2019-01-04T03:56:47.520Z,7.00
2019-01-04T03:59:16.552Z,7.00
2019-01-04T04:01:45.637Z,8.50
2019-01-04T04:04:14.686Z,6.23
2019-01-04T04:06:43.726Z,6.20
2019-01-04T04:09:12.795Z,7.70
2019-01-04T04:11:41.835Z,10.77
2019-01-04T04:14:10.876Z,6.97
2019-01-04T04:16:39.993Z,8.30
2019-01-04T04:19:09.035Z,7.83
2019-01-04T04:21:38.084Z,8.17
2019-01-04T04:24:07.184Z,9.93
2019-01-04T04:26:36.222Z,9.40
2019-01-04T04:29:05.270Z,6.83
2019-01-04T04:31:34.349Z,8.07
2019-01-04T04:34:22.142Z,7.50
2019-01-04T04:36:51.250Z,11.30
2019-01-04T04:39:20.303Z,7.77
2019-01-04T04:41:49.342Z,7.53
2019-01-04T04:44:18.402Z,9.30
2019-01-04T04:46:47.445Z,14.40
2019-01-04T04:49:16.488Z,18.27
2019-01-04T04:51:45.562Z,9.43
2019-01-04T04:54:14.604Z,8.63
2019-01-04T04:56:43.662Z,20.90
2019-01-04T04:59:12.760Z,18.77
2019-01-04T05:01:41.948Z,10.60
2019-01-04T05:04:10.997Z,10.03
2019-01-04T05:06:40.064Z,7.10
2019-01-04T05:09:09.099Z,8.30
2019-01-04T05:11:38.136Z,7.13
2019-01-04T05:14:07.217Z,11.23
2019-01-04T05:16:36.250Z,7.37
2019-01-04T05:19:05.298Z,11.73
2019-01-04T05:21:34.488Z,9.50
2019-01-04T05:24:03.518Z,7.17
2019-01-04T05:26:32.560Z,12.23
2019-01-04T05:29:01.631Z,12.97
2019-01-04T05:31:30.680Z,22.13
2019-01-04T05:33:59.728Z,18.97
2019-01-04T05:36:28.825Z,12.77
2019-01-04T05:38:58.052Z,18.70
2019-01-04T05:41:27.094Z,16.43
2019-01-04T05:44:01.065Z,13.57
2019-01-04T05:46:30.106Z,15.03
2019-01-04T05:48:59.160Z,12.07
2019-01-04T05:51:28.668Z,16.47
2019-01-04T05:53:57.551Z,9.80
2019-01-04T05:56:26.599Z,10.57
2019-01-04T05:58:55.779Z,15.40
2019-01-04T06:01:24.828Z,11.37
2019-01-04T06:03:54.788Z,7.40
2019-01-04T06:06:23.882Z,12.60
2019-01-04T06:08:52.919Z,11.00
2019-01-04T06:11:21.968Z,12.33
2019-01-04T06:13:51.061Z,11.83
2019-01-04T06:16:20.098Z,10.17
2019-01-04T06:18:49.131Z,9.90
2019-01-04T06:21:18.214Z,20.13
2019-01-04T06:24:10.742Z,11.00
2019-01-04T06:26:40.078Z,10.63
2019-01-04T06:29:09.151Z,9.03
2019-01-04T06:31:38.175Z,10.83
2019-01-04T06:34:07.243Z,13.67
2019-01-04T06:36:36.283Z,14.93
2019-01-04T06:39:05.346Z,23.33
2019-01-04T06:41:34.431Z,17.77
2019-01-04T06:44:03.473Z,18.47
2019-01-04T06:46:32.526Z,15.57
2019-01-04T06:49:01.618Z,12.73
2019-01-04T06:51:30.679Z,14.10
2019-01-04T06:54:09.595Z,14.60
2019-01-04T06:56:38.635Z,11.33
2019-01-04T06:59:07.677Z,10.20
2019-01-04T07:01:37.065Z,11.07
2019-01-04T07:04:06.101Z,10.33
2019-01-04T07:06:35.163Z,10.57
2019-01-04T07:09:04.272Z,9.87
2019-01-04T07:11:33.308Z,9.30
2019-01-04T07:14:02.350Z,12.33
2019-01-04T07:16:31.426Z,10.73
2019-01-04T07:19:00.468Z,12.50
2019-01-04T07:21:29.536Z,10.23
2019-01-04T07:23:58.575Z,8.03
2019-01-04T07:26:27.625Z,11.53
2019-01-04T07:28:56.673Z,10.13
2019-01-04T07:31:25.755Z,12.37
2019-01-04T07:33:54.795Z,10.80
2019-01-04T07:36:23.850Z,9.40
2019-01-04T07:38:52.918Z,10.53
2019-01-04T07:41:21.952Z,12.27
2019-01-04T07:43:51.006Z,9.73
2019-01-04T07:46:20.086Z,9.17
2019-01-04T07:48:49.146Z,8.97
2019-01-04T07:51:18.196Z,9.87
2019-01-04T07:53:47.298Z,10.57
2019-01-04T07:56:16.351Z,10.03
2019-01-04T07:58:45.402Z,16.13
2019-01-04T08:01:14.480Z,12.03
2019-01-04T08:03:43.519Z,15.00
2019-01-04T08:06:12.567Z,14.17
2019-01-04T08:08:41.641Z,17.07
2019-01-04T08:11:10.698Z,14.93
2019-01-04T08:13:39.752Z,13.03
2019-01-04T08:16:09.018Z,14.80
2019-01-04T08:18:38.072Z,10.10
2019-01-04T08:21:07.122Z,12.93
2019-01-04T08:23:36.209Z,13.37
2019-01-04T08:26:05.248Z,25.70
2019-01-04T08:28:34.319Z,25.80
2019-01-04T08:31:03.394Z,22.77
2019-01-04T08:33:32.451Z,15.07
2019-01-04T08:36:01.514Z,15.40
2019-01-04T08:38:30.758Z,13.47
2019-01-04T08:40:59.808Z,18.90
2019-01-04T08:43:41.909Z,17.80
2019-01-04T08:46:10.964Z,22.00
2019-01-04T08:48:40.019Z,14.63
2019-01-04T08:51:09.117Z,20.57
2019-01-04T08:53:49.985Z,20.57
2019-01-04T08:56:19.122Z,24.27
2019-01-04T08:58:48.167Z,23.93
2019-01-04T09:01:17.232Z,24.10
2019-01-04T09:03:46.347Z,19.20
2019-01-04T09:06:16.189Z,24.30
2019-01-04T09:08:45.265Z,17.27
2019-01-04T09:11:14.350Z,21.83
2019-01-04T09:13:43.402Z,21.00
2019-01-04T09:16:12.454Z,21.17
2019-01-04T09:18:41.584Z,18.03
2019-01-04T09:21:10.639Z,21.97
2019-01-04T09:23:44.634Z,19.23
2019-01-04T09:26:13.675Z,14.13
2019-01-04T09:28:42.734Z,16.63
2019-01-04T09:31:11.836Z,19.60
2019-01-04T09:33:40.882Z,20.83
2019-01-04T09:36:09.944Z,20.80
2019-01-04T09:38:39.159Z,21.00
2019-01-04T09:41:16.875Z,16.27
2019-01-04T09:43:45.948Z,37.30
2019-01-04T09:46:15.006Z,45.20
2019-01-04T09:48:44.058Z,38.70
2019-01-04T09:51:13.146Z,33.70
2019-01-04T09:53:42.200Z,40.37
2019-01-04T09:56:11.261Z,38.03
2019-01-04T09:58:40.465Z,36.17
2019-01-04T10:01:09.523Z,24.13
2019-01-04T10:04:02.094Z,24.00
2019-01-04T10:06:31.928Z,26.77
2019-01-04T10:09:01.075Z,22.07
2019-01-04T10:11:30.125Z,27.90
2019-01-04T10:13:59.170Z,26.60
2019-01-04T10:16:28.288Z,28.23
2019-01-04T10:18:57.352Z,20.47
2019-01-04T10:21:26.407Z,25.03
2019-01-04T10:23:55.499Z,24.80
2019-01-04T10:26:24.551Z,20.70
2019-01-04T10:28:53.601Z,25.27
2019-01-04T10:31:22.687Z,22.43
2019-01-04T10:33:51.746Z,18.73
2019-01-04T10:36:20.806Z,18.77
2019-01-04T10:38:49.925Z,18.07
2019-01-04T10:41:18.988Z,16.37
2019-01-04T10:43:48.054Z,21.30
2019-01-04T10:46:17.141Z,21.73
2019-01-04T10:48:46.210Z,19.03
2019-01-04T10:51:15.265Z,20.73
2019-01-04T10:53:44.354Z,18.70
2019-01-04T10:56:13.414Z,27.27
2019-01-04T10:58:42.473Z,22.33
2019-01-04T11:01:11.587Z,26.17
2019-01-04T11:03:40.638Z,26.83
2019-01-04T11:06:09.692Z,29.37
2019-01-04T11:08:39.102Z,26.17
2019-01-04T11:11:08.162Z,24.63
2019-01-04T11:13:37.220Z,26.20
2019-01-04T11:16:06.310Z,23.67
2019-01-04T11:18:35.367Z,27.13
2019-01-04T11:21:04.437Z,24.83
2019-01-04T11:23:36.388Z,29.60
2019-01-04T11:26:07.123Z,24.30
2019-01-04T11:28:40.995Z,30.07
2019-01-04T11:31:14.739Z,26.03
2019-01-04T11:33:43.821Z,24.33
2019-01-04T11:36:15.559Z,25.80
2019-01-04T11:38:45.629Z,25.63
2019-01-04T11:44:13.826Z,20.77
2019-01-04T11:46:55.734Z,22.70
2019-01-04T11:49:26.581Z,24.33
2019-01-04T11:52:13.666Z,21.60
2019-01-04T11:54:42.815Z,27.63
2019-01-04T11:57:11.883Z,21.23
2019-01-04T11:59:40.947Z,19.23
2019-01-04T12:02:10.038Z,21.23
2019-01-04T12:04:39.103Z,19.37
2019-01-04T12:07:08.167Z,17.87
2019-01-04T12:09:37.259Z,21.40
2019-01-04T12:12:06.313Z,22.43
2019-01-04T12:14:41.219Z,17.17
2019-01-04T12:17:04.658Z,19.13
2019-01-04T12:19:33.723Z,20.50
2019-01-04T12:22:02.790Z,21.63
2019-01-04T12:24:31.886Z,25.83
2019-01-04T12:27:00.966Z,27.17
2019-01-04T12:29:30.028Z,24.53
2019-01-04T12:31:59.123Z,26.90
2019-01-04T12:34:28.168Z,33.97
2019-01-04T12:36:57.262Z,29.00
2019-01-04T12:39:26.369Z,57.37
2019-01-04T12:41:55.434Z,43.20
2019-01-04T12:44:24.492Z,52.67
2019-01-04T12:46:53.578Z,53.23
2019-01-04T12:49:22.635Z,59.27
2019-01-04T12:51:51.694Z,45.37
2019-01-04T12:54:20.785Z,31.57
2019-01-04T12:56:49.845Z,30.47
2019-01-04T12:59:18.911Z,25.33
2019-01-04T13:01:48.013Z,29.00
2019-01-04T13:04:17.077Z,30.87
2019-01-04T13:06:46.132Z,28.87
2019-01-04T13:09:15.220Z,30.07
2019-01-04T13:11:44.278Z,27.70
2019-01-04T13:14:14.374Z,29.57
2019-01-04T13:16:43.460Z,31.43
2019-01-04T13:19:12.536Z,44.47
2019-01-04T13:21:41.591Z,30.40
2019-01-04T13:24:10.802Z,31.60
2019-01-04T13:26:39.853Z,34.50
2019-01-04T13:29:08.903Z,38.93
2019-01-04T13:31:37.986Z,48.03
2019-01-04T13:34:07.036Z,55.67
2019-01-04T13:36:36.096Z,48.63
2019-01-04T13:39:05.179Z,45.57
2019-01-04T13:41:34.244Z,47.53
2019-01-04T13:44:07.787Z,37.63
2019-01-04T13:46:36.847Z,73.07
2019-01-04T13:49:05.914Z,107.87
2019-01-04T13:51:35.006Z,45.50
2019-01-04T13:54:04.062Z,39.67
2019-01-04T13:56:33.128Z,33.57
2019-01-04T13:59:02.214Z,38.10
2019-01-04T14:01:31.276Z,34.03
2019-01-04T14:04:00.335Z,33.50
2019-01-04T14:06:29.448Z,36.43
2019-01-04T14:08:58.516Z,44.23
2019-01-04T14:11:27.578Z,47.07
2019-01-04T14:13:56.661Z,53.53
2019-01-04T14:16:25.713Z,62.53
2019-01-04T14:18:54.771Z,75.37
2019-01-04T14:21:23.878Z,61.40
2019-01-04T14:23:52.923Z,76.67
2019-01-04T14:26:21.978Z,70.67
2019-01-04T14:28:51.079Z,70.93
2019-01-04T14:31:20.134Z,71.83
2019-01-04T14:33:49.187Z,55.13
2019-01-04T14:36:18.362Z,46.50
2019-01-04T14:38:47.425Z,58.20
2019-01-04T14:41:16.487Z,50.00
2019-01-04T14:43:45.563Z,52.13
2019-01-04T14:46:14.619Z,43.70
2019-01-04T14:48:43.685Z,36.10
2019-01-04T14:51:12.800Z,40.33
2019-01-04T14:53:41.849Z,41.17
2019-01-04T14:56:10.943Z,42.03
2019-01-04T14:58:40.026Z,56.93
2019-01-04T15:01:09.083Z,69.77
2019-01-04T15:03:38.146Z,69.33
2019-01-04T15:06:07.232Z,47.10
2019-01-04T15:08:36.298Z,46.63
2019-01-04T15:11:05.349Z,53.73
2019-01-04T15:13:34.455Z,55.30
2019-01-04T15:16:03.506Z,76.53
2019-01-04T15:18:32.570Z,171.73
2019-01-04T15:21:01.662Z,153.53
2019-01-04T15:23:30.734Z,135.97
2019-01-04T15:25:59.805Z,104.10
2019-01-04T15:28:29.233Z,97.47
2019-01-04T15:30:58.287Z,129.33
2019-01-04T15:36:35.753Z,64.07
2019-01-04T15:39:05.059Z,61.43
2019-01-04T15:41:34.102Z,60.03
2019-01-04T15:44:03.179Z,124.00
2019-01-04T15:46:32.261Z,97.40
2019-01-04T15:49:01.333Z,63.50
2019-01-04T15:51:30.372Z,65.03
2019-01-04T15:53:59.472Z,53.13
2019-01-04T15:56:28.532Z,54.63
2019-01-04T15:58:57.580Z,58.50
2019-01-04T16:01:26.661Z,52.17
2019-01-04T16:03:55.726Z,47.87
2019-01-04T16:06:24.782Z,48.23
2019-01-04T16:08:53.860Z,56.77
2019-01-04T16:11:22.913Z,70.53
2019-01-04T16:13:52.788Z,57.90
2019-01-04T16:16:22.050Z,58.93
2019-01-04T16:18:51.107Z,54.33
2019-01-04T16:21:20.155Z,46.47
2019-01-04T16:23:49.238Z,50.53
2019-01-04T16:26:18.302Z,42.77
2019-01-04T16:28:47.362Z,45.27
2019-01-04T16:31:16.492Z,45.63
2019-01-04T16:33:45.552Z,59.33
2019-01-04T16:36:14.612Z,49.93
2019-01-04T16:38:43.709Z,44.53
2019-01-04T16:41:12.759Z,50.63
2019-01-04T16:43:48.290Z,47.90
2019-01-04T16:46:17.352Z,45.90
2019-01-04T16:48:46.405Z,65.20
2019-01-04T16:51:15.481Z,54.87
2019-01-04T16:53:44.533Z,50.57
2019-01-04T16:56:13.581Z,48.80
2019-01-04T16:58:42.722Z,48.80
2019-01-04T17:01:11.776Z,47.97
2019-01-04T17:03:40.819Z,48.70
2019-01-04T17:06:10.154Z,54.60
2019-01-04T17:08:39.204Z,62.57
2019-01-04T17:11:08.290Z,53.07
2019-01-04T17:13:48.899Z,47.97
2019-01-04T17:16:17.956Z,55.10
2019-01-04T17:18:47.018Z,52.57
2019-01-04T17:21:16.113Z,59.53
2019-01-04T17:23:45.152Z,62.57
2019-01-04T17:26:14.209Z,69.33
2019-01-04T17:28:43.302Z,75.90
2019-01-04T17:31:12.348Z,62.50
2019-01-04T17:36:43.595Z,59.43
2019-01-04T17:39:12.678Z,60.00
2019-01-04T17:41:41.726Z,67.33
2019-01-04T17:44:10.783Z,63.43
2019-01-04T17:46:39.889Z,55.60
2019-01-04T17:49:08.941Z,62.83
2019-01-04T17:51:37.986Z,55.37
2019-01-04T17:54:07.088Z,60.17
2019-01-04T17:56:36.134Z,66.03
2019-01-04T17:59:05.196Z,53.43
2019-01-04T18:01:34.276Z,52.83
2019-01-04T18:04:03.330Z,58.00
2019-01-04T18:06:32.385Z,50.27
2019-01-04T18:09:01.478Z,53.93
2019-01-04T18:11:30.534Z,56.43
2019-01-04T18:13:59.590Z,54.67
2019-01-04T18:16:29.651Z,51.93
2019-01-04T18:18:58.711Z,50.27
2019-01-04T18:21:27.763Z,49.23
2019-01-04T18:23:56.915Z,47.53
2019-01-04T18:26:25.966Z,40.27
2019-01-04T18:28:55.012Z,40.80
2019-01-04T18:31:24.122Z,67.17
2019-01-04T18:33:53.188Z,142.03
2019-01-04T18:36:22.239Z,58.23
2019-01-04T18:38:52.135Z,73.43
2019-01-04T18:41:20.396Z,61.93
2019-01-04T18:43:49.449Z,72.53
2019-01-04T18:46:18.562Z,69.23
2019-01-04T18:48:47.613Z,55.43
2019-01-04T18:51:16.669Z,55.50
2019-01-04T18:53:45.749Z,56.80
2019-01-04T18:56:14.798Z,54.03
2019-01-04T18:58:43.850Z,52.63
2019-01-04T19:01:13.767Z,55.97
2019-01-04T19:03:45.859Z,54.13
2019-01-04T19:06:14.936Z,57.57
2019-01-04T19:08:43.998Z,57.30
2019-01-04T19:11:13.054Z,68.40
2019-01-04T19:13:42.218Z,52.57
2019-01-04T19:16:11.276Z,53.27
2019-01-04T19:18:41.169Z,51.43
2019-01-04T19:21:10.279Z,64.10
2019-01-04T19:23:39.672Z,62.33
2019-01-04T19:26:08.415Z,48.70
2019-01-04T19:28:37.507Z,47.67
2019-01-04T19:31:06.559Z,41.70
2019-01-04T19:33:47.749Z,41.67
2019-01-04T19:36:16.814Z,41.50
2019-01-04T19:38:45.872Z,38.53
2019-01-04T19:41:15.002Z,44.73
2019-01-04T19:43:44.066Z,54.27
2019-01-04T19:46:13.131Z,55.50
2019-01-04T19:48:42.227Z,55.10
2019-01-04T19:51:11.279Z,54.73
2019-01-04T19:53:40.354Z,49.87
2019-01-04T19:56:09.474Z,58.73
2019-01-04T19:58:38.541Z,53.37
2019-01-04T20:01:07.595Z,48.77
2019-01-04T20:03:36.717Z,45.93
2019-01-04T20:06:12.547Z,44.77
2019-01-04T20:08:54.075Z,58.17
2019-01-04T20:11:41.644Z,52.33
2019-01-04T20:17:14.204Z,44.90
2019-01-04T20:22:32.316Z,53.63
2019-01-04T20:27:44.701Z,53.13
2019-01-04T20:32:59.219Z,34.67
2019-01-04T20:35:33.811Z,44.37
2019-01-04T20:38:02.862Z,33.33
2019-01-04T20:40:34.876Z,33.70
2019-01-04T20:43:09.447Z,38.17
2019-01-04T20:45:38.526Z,35.90
2019-01-04T20:48:07.574Z,29.67
2019-01-04T20:50:42.597Z,35.67
2019-01-04T20:53:12.441Z,33.27
2019-01-04T20:55:47.043Z,45.00
2019-01-04T21:00:58.954Z,38.40
2019-01-04T21:03:33.603Z,44.13
2019-01-04T21:06:04.634Z,35.97
2019-01-04T21:08:35.510Z,34.67
2019-01-04T21:11:10.218Z,41.07
2019-01-04T21:13:48.619Z,34.03
2019-01-04T21:16:18.514Z,33.83
2019-01-04T21:18:47.560Z,33.50
2019-01-04T21:24:05.529Z,32.90
2019-01-04T21:26:34.610Z,30.33
2019-01-04T21:29:05.620Z,30.60
2019-01-04T21:31:40.211Z,30.50
2019-01-04T21:34:14.774Z,32.17
2019-01-04T21:36:45.684Z,28.33
2019-01-04T21:39:16.712Z,26.97
2019-01-04T21:41:49.706Z,28.93
2019-01-04T21:44:24.600Z,27.30
2019-01-04T21:46:55.559Z,30.57
2019-01-04T21:49:30.121Z,25.33
2019-01-04T21:52:04.926Z,28.97
2019-01-04T21:54:33.979Z,28.73
2019-01-04T21:57:08.700Z,30.20
2019-01-04T21:59:40.732Z,32.57
2019-01-04T22:02:10.798Z,31.60
2019-01-04T22:04:44.945Z,29.63
2019-01-04T22:07:17.892Z,33.33
2019-01-04T22:09:47.746Z,26.87
2019-01-04T22:12:18.643Z,27.87
2019-01-04T22:14:50.504Z,25.13
2019-01-04T22:17:21.400Z,28.07
2019-01-04T22:19:53.367Z,18.13
2019-01-04T22:22:22.483Z,25.53
2019-01-04T22:24:54.475Z,26.77
2019-01-04T22:27:28.376Z,22.53
2019-01-04T22:29:57.423Z,23.10
2019-01-04T22:32:26.472Z,33.57
2019-01-04T22:34:55.545Z,27.37
2019-01-04T22:37:26.503Z,33.57
2019-01-04T22:40:01.287Z,24.43
2019-01-04T22:42:36.194Z,20.90
2019-01-04T22:45:10.274Z,17.00
2019-01-04T22:47:44.112Z,18.13
2019-01-04T22:50:14.015Z,18.50
2019-01-04T22:52:43.071Z,16.63
2019-01-04T22:55:15.138Z,15.43
2019-01-04T22:57:49.861Z,14.93
2019-01-04T23:00:24.509Z,19.57
2019-01-04T23:02:56.395Z,19.23
2019-01-04T23:05:27.390Z,22.10
2019-01-04T23:07:57.277Z,25.90
2019-01-04T23:10:27.137Z,24.17
2019-01-04T23:12:56.237Z,21.60
2019-01-04T23:15:29.294Z,21.57
2019-01-04T23:18:03.976Z,23.63
2019-01-04T23:20:36.016Z,26.37
2019-01-04T23:23:12.465Z,23.03
2019-01-04T23:25:46.469Z,30.53
2019-01-04T23:28:16.531Z,17.77
2019-01-04T23:30:49.571Z,23.77
2019-01-04T23:33:19.583Z,27.83
2019-01-04T23:35:52.570Z,27.77
2019-01-04T23:38:27.304Z,32.43
2019-01-04T23:40:56.356Z,28.90
2019-01-04T23:43:30.961Z,32.30
2019-01-04T23:46:05.510Z,26.60
2019-01-04T23:48:40.102Z,20.30
2019-01-04T23:51:14.649Z,23.43
2019-01-04T23:53:43.757Z,17.13
2019-01-04T23:56:12.812Z,18.97
2019-01-04T23:58:42.669Z,14.90
